TGL30C EGPH-LFBZ
Flight info
| Callsign | TGL30C |
|---|---|
| Flight time | 2h 8m |
| Altitude | 37000 |
| Route | GOSAM P600 FENIK L612 NAVSO DCT ADZOP DCT EGTOC DCT NOKIN N862 KARNO/N0449F360 DCT ALHUP DCT ABWIV DCT PACSE DCT SIDHO DCT TONQU/N0449F350 DCT MANIG DCT BADUR DCT KORER UM616 TUPAR DCT CNA DCT VAVIX/N0385F190 DCT MAGEC |
| Aircraft | A320/M-SDE3FGHIRWY/LB1 |
Departure
| Time | 2026-04-24 13:01 |
|---|---|
| Airport | Edinburgh Airport (EGPH) |
Arrival
| Time | 2026-04-24 15:09 |
|---|---|
| Airport | Biarritz Pays Basque airport (LFBZ) |
| Time | Latitude | Longitude | Altitude | Speed | Heading |
|---|---|---|---|---|---|
| 2026-04-24 12:24 | 55.94769 | -3.35551 | 107 ft | 0 kts | 207° |
| 2026-04-24 12:44 | 55.94772 | -3.35548 | 108 ft | 2 kts | 207° |
| 2026-04-24 12:44 | 55.94787 | -3.35534 | 106 ft | 2 kts | 208° |
| 2026-04-24 12:45 | 55.94803 | -3.35516 | 107 ft | 3 kts | 229° |
| 2026-04-24 12:45 | 55.94812 | -3.35488 | 107 ft | 3 kts | 265° |
| 2026-04-24 12:45 | 55.94810 | -3.35458 | 106 ft | 2 kts | 297° |
| 2026-04-24 12:45 | 55.94807 | -3.35447 | 107 ft | 0 kts | 298° |
| 2026-04-24 12:52 | 55.94814 | -3.35470 | 108 ft | 4 kts | 298° |
| 2026-04-24 12:52 | 55.94831 | -3.35527 | 108 ft | 7 kts | 298° |
| 2026-04-24 12:52 | 55.94858 | -3.35617 | 106 ft | 9 kts | 298° |
| 2026-04-24 12:53 | 55.94887 | -3.35714 | 107 ft | 10 kts | 299° |
| 2026-04-24 12:53 | 55.94919 | -3.35815 | 107 ft | 10 kts | 305° |
| 2026-04-24 12:53 | 55.94981 | -3.35860 | 107 ft | 11 kts | 13° |
| 2026-04-24 12:53 | 55.95053 | -3.35866 | 105 ft | 12 kts | 305° |
| 2026-04-24 12:54 | 55.95072 | -3.35929 | 106 ft | 1 kts | 299° |
| 2026-04-24 12:54 | 55.95080 | -3.35954 | 105 ft | 4 kts | 298° |
| 2026-04-24 12:54 | 55.95095 | -3.36011 | 105 ft | 7 kts | 289° |
| 2026-04-24 12:54 | 55.95112 | -3.36110 | 104 ft | 10 kts | 287° |
| 2026-04-24 12:55 | 55.95134 | -3.36244 | 104 ft | 12 kts | 275° |
| 2026-04-24 12:55 | 55.95099 | -3.36377 | 106 ft | 12 kts | 238° |
| 2026-04-24 12:55 | 55.95057 | -3.36496 | 107 ft | 12 kts | 238° |
| 2026-04-24 12:55 | 55.95014 | -3.36636 | 107 ft | 14 kts | 240° |
| 2026-04-24 12:56 | 55.94960 | -3.36794 | 106 ft | 16 kts | 239° |
| 2026-04-24 12:56 | 55.94898 | -3.36976 | 104 ft | 16 kts | 238° |
| 2026-04-24 12:56 | 55.94839 | -3.37148 | 105 ft | 17 kts | 239° |
| 2026-04-24 12:56 | 55.94791 | -3.37287 | 106 ft | 12 kts | 238° |
| 2026-04-24 12:57 | 55.94750 | -3.37408 | 99 ft | 11 kts | 238° |
| 2026-04-24 12:57 | 55.94711 | -3.37521 | 110 ft | 11 kts | 238° |
| 2026-04-24 12:57 | 55.94673 | -3.37633 | 112 ft | 10 kts | 238° |
| 2026-04-24 12:57 | 55.94636 | -3.37740 | 114 ft | 11 kts | 238° |
| 2026-04-24 12:58 | 55.94588 | -3.37886 | 111 ft | 15 kts | 242° |
| 2026-04-24 12:58 | 55.94533 | -3.38043 | 112 ft | 15 kts | 238° |
| 2026-04-24 12:58 | 55.94474 | -3.38217 | 111 ft | 15 kts | 240° |
| 2026-04-24 12:58 | 55.94422 | -3.38375 | 113 ft | 15 kts | 238° |
| 2026-04-24 12:59 | 55.94369 | -3.38532 | 113 ft | 14 kts | 239° |
| 2026-04-24 12:59 | 55.94321 | -3.38674 | 117 ft | 13 kts | 239° |
| 2026-04-24 12:59 | 55.94282 | -3.38830 | 120 ft | 13 kts | 276° |
| 2026-04-24 12:59 | 55.94352 | -3.38940 | 116 ft | 15 kts | 328° |
| 2026-04-24 13:00 | 55.94438 | -3.38906 | 119 ft | 5 kts | 56° |
| 2026-04-24 13:00 | 55.94439 | -3.38904 | 119 ft | 0 kts | 56° |
| 2026-04-24 13:00 | 55.94557 | -3.38565 | 115 ft | 74 kts | 58° |
| 2026-04-24 13:00 | 55.94959 | -3.37388 | 107 ft | 144 kts | 58° |
| 2026-04-24 13:01 | 55.95544 | -3.35666 | 418 ft | 170 kts | 59° |
| 2026-04-24 13:01 | 55.96229 | -3.33964 | 1218 ft | 169 kts | 44° |
| 2026-04-24 13:01 | 55.97093 | -3.32559 | 1967 ft | 167 kts | 41° |
| 2026-04-24 13:01 | 55.97990 | -3.31112 | 2310 ft | 185 kts | 41° |
| 2026-04-24 13:02 | 55.98998 | -3.29493 | 2588 ft | 204 kts | 40° |
| 2026-04-24 13:02 | 56.00243 | -3.28242 | 3078 ft | 209 kts | 11° |
| 2026-04-24 13:02 | 56.01681 | -3.28380 | 3517 ft | 216 kts | 337° |
| 2026-04-24 13:02 | 56.02563 | -3.29360 | 3674 ft | 229 kts | 312° |
| 2026-04-24 13:03 | 56.03291 | -3.31977 | 4026 ft | 249 kts | 275° |
| 2026-04-24 13:03 | 56.03062 | -3.35089 | 4720 ft | 258 kts | 257° |
| 2026-04-24 13:03 | 56.02610 | -3.38230 | 5552 ft | 264 kts | 256° |
| 2026-04-24 13:03 | 56.02137 | -3.41423 | 5869 ft | 267 kts | 256° |
| 2026-04-24 13:04 | 56.01662 | -3.44629 | 5968 ft | 267 kts | 256° |
| 2026-04-24 13:04 | 56.01191 | -3.47838 | 5981 ft | 267 kts | 256° |
| 2026-04-24 13:04 | 56.00730 | -3.51042 | 5983 ft | 267 kts | 256° |
| 2026-04-24 13:04 | 56.00273 | -3.54254 | 5989 ft | 267 kts | 256° |
| 2026-04-24 13:05 | 55.99818 | -3.57461 | 5982 ft | 266 kts | 256° |
| 2026-04-24 13:05 | 55.99363 | -3.60665 | 5980 ft | 266 kts | 256° |
| 2026-04-24 13:05 | 55.98906 | -3.63868 | 5980 ft | 266 kts | 256° |
| 2026-04-24 13:05 | 55.98447 | -3.67073 | 5983 ft | 266 kts | 256° |
| 2026-04-24 13:06 | 55.97989 | -3.70278 | 5983 ft | 266 kts | 256° |
| 2026-04-24 13:06 | 55.97530 | -3.73481 | 5982 ft | 266 kts | 256° |
| 2026-04-24 13:06 | 55.97067 | -3.76685 | 5981 ft | 266 kts | 256° |
| 2026-04-24 13:06 | 55.96604 | -3.79883 | 5979 ft | 266 kts | 256° |
| 2026-04-24 13:07 | 55.96140 | -3.83086 | 5982 ft | 266 kts | 256° |
| 2026-04-24 13:07 | 55.95674 | -3.86285 | 5978 ft | 267 kts | 256° |
| 2026-04-24 13:07 | 55.95206 | -3.89484 | 5979 ft | 267 kts | 256° |
| 2026-04-24 13:07 | 55.94739 | -3.92687 | 5981 ft | 267 kts | 256° |
| 2026-04-24 13:08 | 55.94271 | -3.95890 | 5976 ft | 266 kts | 256° |
| 2026-04-24 13:08 | 55.93645 | -3.99004 | 5980 ft | 268 kts | 245° |
| 2026-04-24 13:08 | 55.92705 | -4.01869 | 5979 ft | 268 kts | 234° |
| 2026-04-24 13:09 | 55.90004 | -4.06429 | 5980 ft | 270 kts | 215° |
| 2026-04-24 13:09 | 55.88434 | -4.08336 | 5979 ft | 270 kts | 215° |
| 2026-04-24 13:09 | 55.86910 | -4.10205 | 5981 ft | 270 kts | 216° |
| 2026-04-24 13:09 | 55.85363 | -4.12106 | 5981 ft | 270 kts | 215° |
| 2026-04-24 13:10 | 55.83818 | -4.14000 | 5981 ft | 270 kts | 215° |
| 2026-04-24 13:10 | 55.82273 | -4.15890 | 5981 ft | 270 kts | 215° |
| 2026-04-24 13:10 | 55.80723 | -4.17783 | 5982 ft | 270 kts | 215° |
| 2026-04-24 13:10 | 55.79176 | -4.19669 | 5983 ft | 270 kts | 215° |
| 2026-04-24 13:11 | 55.77622 | -4.21576 | 6213 ft | 274 kts | 216° |
| 2026-04-24 13:11 | 55.76063 | -4.23515 | 7125 ft | 274 kts | 216° |
| 2026-04-24 13:11 | 55.74494 | -4.25464 | 7949 ft | 277 kts | 215° |
| 2026-04-24 13:11 | 55.72747 | -4.26946 | 8737 ft | 283 kts | 197° |
| 2026-04-24 13:12 | 55.70779 | -4.27341 | 9508 ft | 289 kts | 177° |
| 2026-04-24 13:12 | 55.68807 | -4.26512 | 10260 ft | 296 kts | 157° |
| 2026-04-24 13:12 | 55.66934 | -4.24721 | 10708 ft | 312 kts | 152° |
| 2026-04-24 13:12 | 55.64976 | -4.22771 | 10895 ft | 335 kts | 152° |
| 2026-04-24 13:13 | 55.62906 | -4.20723 | 11114 ft | 354 kts | 152° |
| 2026-04-24 13:13 | 55.60732 | -4.18587 | 11696 ft | 360 kts | 152° |
| 2026-04-24 13:13 | 55.58527 | -4.16429 | 12369 ft | 364 kts | 152° |
| 2026-04-24 13:13 | 55.56298 | -4.14253 | 13062 ft | 368 kts | 152° |
| 2026-04-24 13:14 | 55.54018 | -4.12026 | 13762 ft | 371 kts | 152° |
| 2026-04-24 13:14 | 55.51779 | -4.09843 | 14415 ft | 375 kts | 152° |
| 2026-04-24 13:14 | 55.49458 | -4.07584 | 15056 ft | 377 kts | 152° |
| 2026-04-24 13:14 | 55.47152 | -4.05341 | 15684 ft | 380 kts | 152° |
| 2026-04-24 13:15 | 55.44830 | -4.03087 | 16297 ft | 382 kts | 152° |
| 2026-04-24 13:15 | 55.42488 | -4.00822 | 16902 ft | 385 kts | 151° |
| 2026-04-24 13:15 | 55.40134 | -3.98543 | 17526 ft | 387 kts | 151° |
| 2026-04-24 13:15 | 55.37764 | -3.96250 | 18155 ft | 390 kts | 151° |
| 2026-04-24 13:16 | 55.35381 | -3.93949 | 18761 ft | 392 kts | 151° |
| 2026-04-24 13:16 | 55.32978 | -3.91632 | 19316 ft | 395 kts | 151° |
| 2026-04-24 13:16 | 55.30560 | -3.89303 | 19862 ft | 398 kts | 151° |
| 2026-04-24 13:16 | 55.28124 | -3.86962 | 20413 ft | 401 kts | 151° |
| 2026-04-24 13:17 | 55.25670 | -3.84607 | 20906 ft | 404 kts | 151° |
| 2026-04-24 13:17 | 55.23186 | -3.82254 | 21364 ft | 408 kts | 153° |
| 2026-04-24 13:17 | 55.20540 | -3.80393 | 21823 ft | 412 kts | 162° |
| 2026-04-24 13:17 | 55.17801 | -3.78889 | 22299 ft | 414 kts | 162° |
| 2026-04-24 13:18 | 55.15042 | -3.77371 | 22742 ft | 417 kts | 162° |
| 2026-04-24 13:18 | 55.12268 | -3.75851 | 23178 ft | 420 kts | 162° |
| 2026-04-24 13:18 | 55.09471 | -3.74322 | 23614 ft | 422 kts | 162° |
| 2026-04-24 13:18 | 55.06665 | -3.72790 | 24010 ft | 425 kts | 162° |
| 2026-04-24 13:19 | 55.03832 | -3.71241 | 24355 ft | 427 kts | 161° |
| 2026-04-24 13:19 | 55.00987 | -3.69684 | 24690 ft | 430 kts | 161° |
| 2026-04-24 13:19 | 54.98125 | -3.68123 | 25029 ft | 432 kts | 162° |
| 2026-04-24 13:19 | 54.95242 | -3.66561 | 25364 ft | 435 kts | 162° |
| 2026-04-24 13:20 | 54.92349 | -3.64998 | 25686 ft | 437 kts | 161° |
| 2026-04-24 13:20 | 54.89424 | -3.63415 | 26007 ft | 439 kts | 161° |
| 2026-04-24 13:20 | 54.86508 | -3.61838 | 26311 ft | 442 kts | 161° |
| 2026-04-24 13:20 | 54.83565 | -3.60247 | 26618 ft | 445 kts | 161° |
| 2026-04-24 13:21 | 54.80603 | -3.58649 | 26923 ft | 447 kts | 161° |
| 2026-04-24 13:21 | 54.77625 | -3.57042 | 27222 ft | 450 kts | 161° |
| 2026-04-24 13:21 | 54.74628 | -3.55425 | 27519 ft | 452 kts | 161° |
| 2026-04-24 13:21 | 54.71617 | -3.53802 | 27815 ft | 455 kts | 161° |
| 2026-04-24 13:22 | 54.68586 | -3.52177 | 28133 ft | 457 kts | 161° |
| 2026-04-24 13:22 | 54.65549 | -3.50554 | 28534 ft | 457 kts | 161° |
| 2026-04-24 13:22 | 54.62511 | -3.48938 | 28943 ft | 457 kts | 161° |
| 2026-04-24 13:22 | 54.59472 | -3.47324 | 29362 ft | 457 kts | 161° |
| 2026-04-24 13:23 | 54.56434 | -3.45707 | 29783 ft | 457 kts | 161° |
| 2026-04-24 13:23 | 54.53396 | -3.44091 | 30198 ft | 457 kts | 161° |
| 2026-04-24 13:23 | 54.50358 | -3.42476 | 30575 ft | 457 kts | 161° |
| 2026-04-24 13:23 | 54.47320 | -3.40862 | 30940 ft | 457 kts | 161° |
| 2026-04-24 13:24 | 54.44283 | -3.39250 | 31319 ft | 456 kts | 161° |
| 2026-04-24 13:24 | 54.41249 | -3.37641 | 31657 ft | 457 kts | 161° |
| 2026-04-24 13:24 | 54.38215 | -3.36035 | 32022 ft | 456 kts | 161° |
| 2026-04-24 13:24 | 54.35183 | -3.34439 | 32395 ft | 456 kts | 161° |
| 2026-04-24 13:25 | 54.32148 | -3.32848 | 32771 ft | 456 kts | 161° |
| 2026-04-24 13:25 | 54.29120 | -3.31262 | 33143 ft | 455 kts | 161° |
| 2026-04-24 13:25 | 54.26094 | -3.29678 | 33518 ft | 455 kts | 162° |
| 2026-04-24 13:25 | 54.23066 | -3.28094 | 33888 ft | 454 kts | 162° |
| 2026-04-24 13:26 | 54.20041 | -3.26515 | 34264 ft | 454 kts | 163° |
| 2026-04-24 13:26 | 54.16954 | -3.25381 | 34530 ft | 455 kts | 173° |
| 2026-04-24 13:26 | 54.13799 | -3.24862 | 34805 ft | 455 kts | 175° |
| 2026-04-24 13:26 | 54.10650 | -3.24382 | 35107 ft | 454 kts | 175° |
| 2026-04-24 13:27 | 54.07501 | -3.23895 | 35415 ft | 453 kts | 175° |
| 2026-04-24 13:27 | 54.04367 | -3.23405 | 35724 ft | 452 kts | 175° |
| 2026-04-24 13:27 | 54.01241 | -3.22912 | 36026 ft | 450 kts | 174° |
| 2026-04-24 13:27 | 53.98158 | -3.22023 | 36316 ft | 449 kts | 167° |
| 2026-04-24 13:28 | 53.95113 | -3.20847 | 36583 ft | 448 kts | 168° |
| 2026-04-24 13:28 | 53.92074 | -3.19680 | 36857 ft | 447 kts | 168° |
| 2026-04-24 13:28 | 53.89043 | -3.18524 | 37120 ft | 446 kts | 168° |
| 2026-04-24 13:28 | 53.86014 | -3.17375 | 37296 ft | 446 kts | 169° |
| 2026-04-24 13:29 | 53.79894 | -3.15067 | 37328 ft | 454 kts | 169° |
| 2026-04-24 13:29 | 53.73701 | -3.12742 | 37329 ft | 457 kts | 169° |
| 2026-04-24 13:30 | 53.67483 | -3.10410 | 37326 ft | 459 kts | 169° |
| 2026-04-24 13:30 | 53.61241 | -3.08069 | 37329 ft | 460 kts | 169° |
| 2026-04-24 13:31 | 53.54992 | -3.05731 | 37334 ft | 460 kts | 169° |
| 2026-04-24 13:31 | 53.48735 | -3.03404 | 37338 ft | 461 kts | 169° |
| 2026-04-24 13:32 | 53.42468 | -3.01078 | 37339 ft | 461 kts | 169° |
| 2026-04-24 13:32 | 53.36206 | -2.98761 | 37342 ft | 461 kts | 169° |
| 2026-04-24 13:33 | 53.29936 | -2.96446 | 37342 ft | 461 kts | 169° |
| 2026-04-24 13:33 | 53.23665 | -2.94143 | 37343 ft | 461 kts | 169° |
| 2026-04-24 13:34 | 53.17392 | -2.91853 | 37339 ft | 461 kts | 169° |
| 2026-04-24 13:34 | 53.11121 | -2.89552 | 37342 ft | 462 kts | 169° |
| 2026-04-24 13:35 | 53.04789 | -2.88513 | 37338 ft | 456 kts | 186° |
| 2026-04-24 13:35 | 52.98454 | -2.89073 | 37331 ft | 456 kts | 186° |
| 2026-04-24 13:36 | 52.92125 | -2.89609 | 37330 ft | 455 kts | 186° |
| 2026-04-24 13:36 | 52.85858 | -2.90668 | 37333 ft | 451 kts | 191° |
| 2026-04-24 13:37 | 52.79646 | -2.92137 | 37329 ft | 451 kts | 191° |
| 2026-04-24 13:37 | 52.73443 | -2.93594 | 37327 ft | 450 kts | 191° |
| 2026-04-24 13:38 | 52.67150 | -2.94444 | 37325 ft | 451 kts | 186° |
| 2026-04-24 13:38 | 52.60884 | -2.94963 | 37324 ft | 450 kts | 186° |
| 2026-04-24 13:39 | 52.54629 | -2.95486 | 37323 ft | 450 kts | 186° |
| 2026-04-24 13:39 | 52.48378 | -2.95995 | 37305 ft | 449 kts | 186° |
| 2026-04-24 13:40 | 52.43192 | -2.96420 | 37317 ft | 448 kts | 186° |
| 2026-04-24 13:40 | 52.36971 | -2.96935 | 37323 ft | 447 kts | 186° |
| 2026-04-24 13:41 | 52.30718 | -2.97442 | 37317 ft | 446 kts | 185° |
| 2026-04-24 13:41 | 52.24570 | -2.97950 | 37303 ft | 445 kts | 185° |
| 2026-04-24 13:42 | 52.18353 | -2.98466 | 37315 ft | 444 kts | 185° |
| 2026-04-24 13:42 | 52.12195 | -2.98968 | 37316 ft | 443 kts | 185° |
| 2026-04-24 13:43 | 52.06046 | -2.99457 | 37314 ft | 442 kts | 185° |
| 2026-04-24 13:43 | 51.99905 | -2.99948 | 37328 ft | 442 kts | 185° |
| 2026-04-24 13:44 | 51.93774 | -3.00441 | 37343 ft | 441 kts | 185° |
| 2026-04-24 13:44 | 51.87651 | -3.00945 | 37364 ft | 440 kts | 186° |
| 2026-04-24 13:45 | 51.81581 | -3.01967 | 37378 ft | 438 kts | 190° |
| 2026-04-24 13:45 | 51.75555 | -3.03397 | 37374 ft | 437 kts | 191° |
| 2026-04-24 13:46 | 51.69538 | -3.04797 | 37374 ft | 437 kts | 190° |
| 2026-04-24 13:46 | 51.63517 | -3.06065 | 37367 ft | 436 kts | 189° |
| 2026-04-24 13:47 | 51.57499 | -3.07289 | 37346 ft | 436 kts | 189° |
| 2026-04-24 13:47 | 51.51486 | -3.08510 | 37303 ft | 435 kts | 189° |
| 2026-04-24 13:48 | 51.45442 | -3.09744 | 37314 ft | 434 kts | 189° |
| 2026-04-24 13:48 | 51.39453 | -3.10976 | 37314 ft | 434 kts | 189° |
| 2026-04-24 13:49 | 51.33471 | -3.12211 | 37316 ft | 433 kts | 189° |
| 2026-04-24 13:49 | 51.27494 | -3.13445 | 37277 ft | 433 kts | 189° |
| 2026-04-24 13:50 | 51.21523 | -3.14655 | 37278 ft | 432 kts | 189° |
| 2026-04-24 13:50 | 51.15565 | -3.15854 | 37280 ft | 431 kts | 189° |
| 2026-04-24 13:51 | 51.09611 | -3.17063 | 37277 ft | 431 kts | 189° |
| 2026-04-24 13:51 | 51.03664 | -3.18275 | 37277 ft | 431 kts | 189° |
| 2026-04-24 13:52 | 50.97680 | -3.19493 | 37279 ft | 431 kts | 189° |
| 2026-04-24 13:52 | 50.91735 | -3.20682 | 37281 ft | 431 kts | 189° |
| 2026-04-24 13:53 | 50.85792 | -3.21880 | 37283 ft | 430 kts | 189° |
| 2026-04-24 13:53 | 50.79852 | -3.23067 | 37280 ft | 430 kts | 189° |
| 2026-04-24 13:54 | 50.73915 | -3.24241 | 37288 ft | 430 kts | 189° |
| 2026-04-24 13:54 | 50.67986 | -3.25415 | 37288 ft | 429 kts | 189° |
| 2026-04-24 13:55 | 50.62064 | -3.26600 | 37279 ft | 429 kts | 189° |
| 2026-04-24 13:55 | 50.56156 | -3.27777 | 37279 ft | 427 kts | 189° |
| 2026-04-24 13:56 | 50.50261 | -3.28951 | 37286 ft | 426 kts | 189° |
| 2026-04-24 13:56 | 50.44380 | -3.30105 | 37283 ft | 426 kts | 189° |
| 2026-04-24 13:57 | 50.38490 | -3.31129 | 37275 ft | 426 kts | 183° |
| 2026-04-24 13:57 | 50.32558 | -3.30695 | 37276 ft | 427 kts | 179° |
| 2026-04-24 13:58 | 50.26629 | -3.30163 | 37271 ft | 426 kts | 179° |
| 2026-04-24 13:58 | 50.20709 | -3.29638 | 37270 ft | 426 kts | 179° |
| 2026-04-24 13:59 | 50.14790 | -3.29120 | 37265 ft | 426 kts | 179° |
| 2026-04-24 13:59 | 50.08882 | -3.28604 | 37263 ft | 425 kts | 179° |
| 2026-04-24 14:00 | 50.02982 | -3.28084 | 37265 ft | 424 kts | 179° |
| 2026-04-24 14:00 | 49.97091 | -3.27564 | 37261 ft | 424 kts | 179° |
| 2026-04-24 14:01 | 49.91202 | -3.27031 | 37246 ft | 423 kts | 179° |
| 2026-04-24 14:01 | 49.85322 | -3.26506 | 37244 ft | 423 kts | 178° |
| 2026-04-24 14:02 | 49.79445 | -3.25994 | 37246 ft | 423 kts | 178° |
| 2026-04-24 14:02 | 49.73626 | -3.24502 | 37240 ft | 424 kts | 172° |
| 2026-04-24 14:03 | 49.67822 | -3.22803 | 37228 ft | 424 kts | 171° |
| 2026-04-24 14:03 | 49.62016 | -3.21112 | 37223 ft | 425 kts | 171° |
| 2026-04-24 14:04 | 49.56212 | -3.19422 | 37222 ft | 425 kts | 171° |
| 2026-04-24 14:04 | 49.50360 | -3.17724 | 37222 ft | 425 kts | 171° |
| 2026-04-24 14:05 | 49.44587 | -3.16052 | 37215 ft | 425 kts | 171° |
| 2026-04-24 14:05 | 49.38775 | -3.14365 | 37211 ft | 425 kts | 171° |
| 2026-04-24 14:06 | 49.32962 | -3.12694 | 37212 ft | 425 kts | 171° |
| 2026-04-24 14:06 | 49.27147 | -3.11031 | 37209 ft | 425 kts | 171° |
| 2026-04-24 14:07 | 49.21333 | -3.09364 | 37191 ft | 425 kts | 171° |
| 2026-04-24 14:07 | 49.15471 | -3.07690 | 37196 ft | 426 kts | 171° |
| 2026-04-24 14:08 | 49.09645 | -3.06032 | 37192 ft | 426 kts | 171° |
| 2026-04-24 14:08 | 49.03813 | -3.04367 | 37183 ft | 426 kts | 171° |
| 2026-04-24 14:09 | 48.97983 | -3.02698 | 37187 ft | 426 kts | 171° |
| 2026-04-24 14:09 | 48.92154 | -3.01040 | 37191 ft | 426 kts | 171° |
| 2026-04-24 14:10 | 48.86323 | -2.99393 | 37180 ft | 426 kts | 171° |
| 2026-04-24 14:10 | 48.80495 | -2.97755 | 37185 ft | 426 kts | 171° |
| 2026-04-24 14:11 | 48.74667 | -2.96113 | 37183 ft | 426 kts | 171° |
| 2026-04-24 14:12 | 48.66036 | -2.92861 | 37177 ft | 427 kts | 165° |
| 2026-04-24 14:12 | 48.60336 | -2.90309 | 37158 ft | 427 kts | 165° |
| 2026-04-24 14:13 | 48.54636 | -2.87772 | 37170 ft | 427 kts | 165° |
| 2026-04-24 14:13 | 48.48940 | -2.85238 | 37164 ft | 427 kts | 165° |
| 2026-04-24 14:14 | 48.43242 | -2.82702 | 37152 ft | 427 kts | 165° |
| 2026-04-24 14:14 | 48.35659 | -2.79347 | 37153 ft | 427 kts | 165° |
| 2026-04-24 14:15 | 48.29960 | -2.76842 | 37152 ft | 426 kts | 165° |
| 2026-04-24 14:15 | 48.24267 | -2.74334 | 37138 ft | 426 kts | 165° |
| 2026-04-24 14:16 | 48.18574 | -2.71828 | 37132 ft | 426 kts | 165° |
| 2026-04-24 14:17 | 48.10003 | -2.68067 | 37131 ft | 426 kts | 165° |
| 2026-04-24 14:17 | 48.01470 | -2.64346 | 37130 ft | 426 kts | 165° |
| 2026-04-24 14:18 | 47.95786 | -2.61865 | 37124 ft | 425 kts | 165° |
| 2026-04-24 14:18 | 47.90102 | -2.59407 | 37130 ft | 425 kts | 165° |
| 2026-04-24 14:19 | 47.84424 | -2.56958 | 37122 ft | 425 kts | 165° |
| 2026-04-24 14:19 | 47.78749 | -2.54499 | 37122 ft | 425 kts | 165° |
| 2026-04-24 14:20 | 47.73077 | -2.52047 | 37105 ft | 425 kts | 163° |
| 2026-04-24 14:20 | 47.67821 | -2.48028 | 37090 ft | 430 kts | 144° |
| 2026-04-24 14:21 | 47.63612 | -2.41687 | 37088 ft | 434 kts | 133° |
| 2026-04-24 14:21 | 47.59666 | -2.34909 | 37089 ft | 435 kts | 133° |
| 2026-04-24 14:22 | 47.55698 | -2.28149 | 37078 ft | 435 kts | 133° |
| 2026-04-24 14:23 | 47.49706 | -2.17951 | 37100 ft | 436 kts | 133° |
| 2026-04-24 14:23 | 47.45725 | -2.11189 | 37106 ft | 436 kts | 133° |
| 2026-04-24 14:24 | 47.41733 | -2.04439 | 37098 ft | 437 kts | 133° |
| 2026-04-24 14:24 | 47.37728 | -1.97682 | 37088 ft | 437 kts | 133° |
| 2026-04-24 14:25 | 47.33719 | -1.90930 | 37097 ft | 438 kts | 133° |
| 2026-04-24 14:25 | 47.29708 | -1.84162 | 37091 ft | 438 kts | 133° |
| 2026-04-24 14:26 | 47.25693 | -1.77393 | 37098 ft | 439 kts | 133° |
| 2026-04-24 14:26 | 47.21674 | -1.70640 | 37104 ft | 439 kts | 133° |
| 2026-04-24 14:27 | 47.17637 | -1.63903 | 37103 ft | 439 kts | 133° |
| 2026-04-24 14:27 | 47.13296 | -1.57622 | 37086 ft | 438 kts | 140° |
| 2026-04-24 14:28 | 47.08754 | -1.51646 | 37078 ft | 439 kts | 140° |
| 2026-04-24 14:28 | 47.04204 | -1.45665 | 37091 ft | 439 kts | 140° |
| 2026-04-24 14:29 | 46.99644 | -1.39695 | 37091 ft | 440 kts | 140° |
| 2026-04-24 14:29 | 46.95081 | -1.33738 | 37103 ft | 440 kts | 140° |
| 2026-04-24 14:30 | 46.91257 | -1.28737 | 37107 ft | 440 kts | 140° |
| 2026-04-24 14:30 | 46.85920 | -1.21781 | 37110 ft | 440 kts | 140° |
| 2026-04-24 14:31 | 46.81344 | -1.15833 | 37090 ft | 441 kts | 140° |
| 2026-04-24 14:31 | 46.76757 | -1.09870 | 37090 ft | 442 kts | 140° |
| 2026-04-24 14:32 | 46.72150 | -1.03903 | 37088 ft | 443 kts | 140° |
| 2026-04-24 14:32 | 46.67532 | -0.97949 | 37090 ft | 444 kts | 140° |
| 2026-04-24 14:33 | 46.62908 | -0.92004 | 37091 ft | 444 kts | 140° |
| 2026-04-24 14:33 | 46.58282 | -0.86055 | 37095 ft | 444 kts | 140° |
| 2026-04-24 14:34 | 46.53660 | -0.80103 | 37095 ft | 444 kts | 140° |
| 2026-04-24 14:34 | 46.49007 | -0.74097 | 37078 ft | 445 kts | 140° |
| 2026-04-24 14:35 | 46.44290 | -0.68276 | 37067 ft | 445 kts | 147° |
| 2026-04-24 14:35 | 46.38782 | -0.64350 | 37060 ft | 441 kts | 164° |
| 2026-04-24 14:36 | 46.32929 | -0.61659 | 37063 ft | 442 kts | 164° |
| 2026-04-24 14:36 | 46.27071 | -0.58961 | 37080 ft | 442 kts | 164° |
| 2026-04-24 14:37 | 46.21213 | -0.56258 | 37081 ft | 442 kts | 163° |
| 2026-04-24 14:37 | 46.15350 | -0.53569 | 37082 ft | 442 kts | 164° |
| 2026-04-24 14:38 | 46.09495 | -0.50902 | 37093 ft | 441 kts | 164° |
| 2026-04-24 14:38 | 46.03640 | -0.48230 | 37091 ft | 441 kts | 164° |
| 2026-04-24 14:39 | 45.97789 | -0.45569 | 37090 ft | 441 kts | 164° |
| 2026-04-24 14:39 | 45.91945 | -0.42913 | 37092 ft | 440 kts | 164° |
| 2026-04-24 14:40 | 45.86105 | -0.40260 | 37093 ft | 440 kts | 164° |
| 2026-04-24 14:40 | 45.80272 | -0.37612 | 37090 ft | 440 kts | 164° |
| 2026-04-24 14:41 | 45.74440 | -0.34976 | 37092 ft | 439 kts | 164° |
| 2026-04-24 14:41 | 45.68586 | -0.32505 | 37098 ft | 437 kts | 171° |
| 2026-04-24 14:42 | 45.63575 | -0.32040 | 37096 ft | 434 kts | 186° |
| 2026-04-24 14:42 | 45.56651 | -0.33801 | 37088 ft | 432 kts | 192° |
| 2026-04-24 14:43 | 45.50749 | -0.35469 | 37087 ft | 432 kts | 192° |
| 2026-04-24 14:43 | 45.44844 | -0.37126 | 37086 ft | 432 kts | 192° |
| 2026-04-24 14:44 | 45.38945 | -0.38790 | 37086 ft | 432 kts | 192° |
| 2026-04-24 14:44 | 45.33047 | -0.40450 | 37081 ft | 432 kts | 192° |
| 2026-04-24 14:45 | 45.27147 | -0.42090 | 37084 ft | 432 kts | 192° |
| 2026-04-24 14:45 | 45.21250 | -0.43732 | 37080 ft | 432 kts | 192° |
| 2026-04-24 14:46 | 45.15358 | -0.45377 | 37077 ft | 431 kts | 192° |
| 2026-04-24 14:46 | 45.09474 | -0.47019 | 37081 ft | 431 kts | 192° |
| 2026-04-24 14:47 | 45.04595 | -0.48374 | 37020 ft | 429 kts | 192° |
| 2026-04-24 14:47 | 45.00657 | -0.49462 | 35392 ft | 436 kts | 192° |
| 2026-04-24 14:47 | 44.97662 | -0.50290 | 34254 ft | 437 kts | 192° |
| 2026-04-24 14:47 | 44.94724 | -0.51105 | 33590 ft | 425 kts | 192° |
| 2026-04-24 14:48 | 44.91842 | -0.51902 | 32747 ft | 419 kts | 192° |
| 2026-04-24 14:48 | 44.88966 | -0.52698 | 31877 ft | 424 kts | 192° |
| 2026-04-24 14:48 | 44.86051 | -0.53503 | 31064 ft | 429 kts | 191° |
| 2026-04-24 14:48 | 44.83104 | -0.54316 | 30159 ft | 436 kts | 192° |
| 2026-04-24 14:49 | 44.81076 | -0.54875 | 29426 ft | 441 kts | 191° |
| 2026-04-24 14:49 | 44.78087 | -0.55697 | 28979 ft | 433 kts | 191° |
| 2026-04-24 14:49 | 44.75139 | -0.56505 | 28371 ft | 430 kts | 192° |
| 2026-04-24 14:49 | 44.72213 | -0.57308 | 27778 ft | 427 kts | 192° |
| 2026-04-24 14:50 | 44.69309 | -0.58104 | 27178 ft | 424 kts | 192° |
| 2026-04-24 14:50 | 44.66423 | -0.58892 | 26589 ft | 421 kts | 192° |
| 2026-04-24 14:50 | 44.63551 | -0.59674 | 26004 ft | 419 kts | 192° |
| 2026-04-24 14:50 | 44.60703 | -0.60452 | 25421 ft | 416 kts | 192° |
| 2026-04-24 14:51 | 44.57869 | -0.61230 | 24849 ft | 413 kts | 192° |
| 2026-04-24 14:51 | 44.55053 | -0.62004 | 24274 ft | 411 kts | 192° |
| 2026-04-24 14:51 | 44.52254 | -0.62769 | 23714 ft | 409 kts | 192° |
| 2026-04-24 14:51 | 44.49468 | -0.63525 | 23089 ft | 406 kts | 192° |
| 2026-04-24 14:52 | 44.46705 | -0.64273 | 22543 ft | 402 kts | 192° |
| 2026-04-24 14:52 | 44.44005 | -0.65005 | 22013 ft | 399 kts | 192° |
| 2026-04-24 14:52 | 44.41289 | -0.65740 | 21511 ft | 396 kts | 192° |
| 2026-04-24 14:52 | 44.38556 | -0.66482 | 21013 ft | 394 kts | 192° |
| 2026-04-24 14:53 | 44.35875 | -0.67209 | 20510 ft | 392 kts | 192° |
| 2026-04-24 14:53 | 44.33204 | -0.67929 | 20027 ft | 390 kts | 192° |
| 2026-04-24 14:53 | 44.30548 | -0.68648 | 19527 ft | 388 kts | 193° |
| 2026-04-24 14:53 | 44.27982 | -0.69740 | 19032 ft | 384 kts | 204° |
| 2026-04-24 14:54 | 44.25625 | -0.71450 | 18532 ft | 381 kts | 214° |
| 2026-04-24 14:54 | 44.23443 | -0.73542 | 17972 ft | 379 kts | 216° |
| 2026-04-24 14:54 | 44.21281 | -0.75625 | 17442 ft | 376 kts | 216° |
| 2026-04-24 14:54 | 44.19134 | -0.77681 | 16929 ft | 373 kts | 215° |
| 2026-04-24 14:55 | 44.17004 | -0.79709 | 16396 ft | 370 kts | 215° |
| 2026-04-24 14:55 | 44.14891 | -0.81716 | 15871 ft | 366 kts | 215° |
| 2026-04-24 14:55 | 44.12793 | -0.83707 | 15331 ft | 363 kts | 215° |
| 2026-04-24 14:55 | 44.10712 | -0.85683 | 14798 ft | 361 kts | 216° |
| 2026-04-24 14:56 | 44.08646 | -0.87648 | 14263 ft | 359 kts | 216° |
| 2026-04-24 14:56 | 44.06592 | -0.89600 | 13711 ft | 357 kts | 216° |
| 2026-04-24 14:56 | 44.04549 | -0.91543 | 13154 ft | 354 kts | 216° |
| 2026-04-24 14:56 | 44.02523 | -0.93471 | 12625 ft | 351 kts | 216° |
| 2026-04-24 14:57 | 44.00514 | -0.95380 | 12101 ft | 348 kts | 216° |
| 2026-04-24 14:57 | 43.98522 | -0.97271 | 11572 ft | 346 kts | 216° |
| 2026-04-24 14:57 | 43.96543 | -0.99144 | 11055 ft | 343 kts | 215° |
| 2026-04-24 14:57 | 43.94578 | -1.01001 | 10653 ft | 338 kts | 216° |
| 2026-04-24 14:58 | 43.92672 | -1.02800 | 10530 ft | 324 kts | 215° |
| 2026-04-24 14:58 | 43.90842 | -1.04524 | 10408 ft | 312 kts | 214° |
| 2026-04-24 14:58 | 43.89075 | -1.06182 | 10288 ft | 301 kts | 214° |
| 2026-04-24 14:58 | 43.87363 | -1.07789 | 10114 ft | 294 kts | 215° |
| 2026-04-24 14:59 | 43.85692 | -1.09361 | 10018 ft | 288 kts | 214° |
| 2026-04-24 14:59 | 43.84029 | -1.10927 | 9735 ft | 291 kts | 215° |
| 2026-04-24 14:59 | 43.82357 | -1.12504 | 9359 ft | 290 kts | 215° |
| 2026-04-24 14:59 | 43.80708 | -1.14058 | 9025 ft | 287 kts | 214° |
| 2026-04-24 15:00 | 43.79061 | -1.15607 | 8759 ft | 282 kts | 213° |
| 2026-04-24 15:00 | 43.77461 | -1.17111 | 8315 ft | 276 kts | 213° |
| 2026-04-24 15:00 | 43.75879 | -1.18580 | 7798 ft | 271 kts | 210° |
| 2026-04-24 15:00 | 43.74195 | -1.19637 | 7410 ft | 265 kts | 196° |
| 2026-04-24 15:01 | 43.72393 | -1.20167 | 7069 ft | 264 kts | 189° |
| 2026-04-24 15:01 | 43.70579 | -1.20604 | 6717 ft | 265 kts | 189° |
| 2026-04-24 15:01 | 43.68762 | -1.21041 | 6358 ft | 266 kts | 189° |
| 2026-04-24 15:01 | 43.66941 | -1.21478 | 6021 ft | 266 kts | 190° |
| 2026-04-24 15:02 | 43.65114 | -1.21920 | 5612 ft | 267 kts | 190° |
| 2026-04-24 15:02 | 43.63277 | -1.22367 | 5200 ft | 269 kts | 191° |
| 2026-04-24 15:02 | 43.61433 | -1.22816 | 4822 ft | 269 kts | 191° |
| 2026-04-24 15:02 | 43.59582 | -1.23264 | 4448 ft | 270 kts | 191° |
| 2026-04-24 15:03 | 43.57731 | -1.23705 | 4096 ft | 270 kts | 190° |
| 2026-04-24 15:03 | 43.55882 | -1.24141 | 3732 ft | 267 kts | 190° |
| 2026-04-24 15:03 | 43.54081 | -1.24562 | 3391 ft | 258 kts | 192° |
| 2026-04-24 15:03 | 43.52366 | -1.24960 | 3171 ft | 242 kts | 191° |
| 2026-04-24 15:04 | 43.50764 | -1.25336 | 2955 ft | 226 kts | 194° |
| 2026-04-24 15:04 | 43.49350 | -1.26031 | 2750 ft | 209 kts | 214° |
| 2026-04-24 15:04 | 43.48249 | -1.27217 | 2607 ft | 193 kts | 229° |
| 2026-04-24 15:04 | 43.47517 | -1.28656 | 2508 ft | 170 kts | 248° |
| 2026-04-24 15:05 | 43.47144 | -1.30087 | 2497 ft | 151 kts | 260° |
| 2026-04-24 15:05 | 43.47033 | -1.31490 | 2508 ft | 147 kts | 270° |
| 2026-04-24 15:05 | 43.47021 | -1.32850 | 2504 ft | 143 kts | 271° |
| 2026-04-24 15:05 | 43.47010 | -1.34205 | 2466 ft | 141 kts | 271° |
| 2026-04-24 15:06 | 43.46998 | -1.35571 | 2347 ft | 140 kts | 271° |
| 2026-04-24 15:06 | 43.46986 | -1.36897 | 2200 ft | 137 kts | 272° |
| 2026-04-24 15:06 | 43.46974 | -1.38215 | 2020 ft | 138 kts | 271° |
| 2026-04-24 15:06 | 43.46962 | -1.39528 | 1841 ft | 136 kts | 271° |
| 2026-04-24 15:07 | 43.46951 | -1.40828 | 1665 ft | 137 kts | 272° |
| 2026-04-24 15:07 | 43.46938 | -1.42138 | 1485 ft | 136 kts | 272° |
| 2026-04-24 15:07 | 43.46926 | -1.43425 | 1305 ft | 134 kts | 272° |
| 2026-04-24 15:07 | 43.46914 | -1.44719 | 1126 ft | 138 kts | 272° |
| 2026-04-24 15:08 | 43.46901 | -1.46018 | 952 ft | 134 kts | 273° |
| 2026-04-24 15:08 | 43.46889 | -1.47319 | 774 ft | 137 kts | 277° |
| 2026-04-24 15:08 | 43.46876 | -1.48638 | 608 ft | 137 kts | 275° |
| 2026-04-24 15:08 | 43.46881 | -1.49952 | 367 ft | 138 kts | 273° |
| 2026-04-24 15:09 | 43.46854 | -1.51234 | 288 ft | 129 kts | 272° |
| 2026-04-24 15:09 | 43.46838 | -1.52298 | 250 ft | 74 kts | 268° |
| 2026-04-24 15:09 | 43.46835 | -1.52599 | 253 ft | 1 kts | 269° |
| 2026-04-24 15:09 | 43.46834 | -1.52660 | 253 ft | 14 kts | 268° |
| 2026-04-24 15:10 | 43.46832 | -1.52817 | 254 ft | 17 kts | 269° |
| 2026-04-24 15:10 | 43.46831 | -1.52990 | 256 ft | 19 kts | 270° |
| 2026-04-24 15:10 | 43.46853 | -1.53132 | 256 ft | 15 kts | 314° |
| 2026-04-24 15:10 | 43.46936 | -1.53189 | 257 ft | 11 kts | 334° |
| 2026-04-24 15:11 | 43.46969 | -1.53211 | 257 ft | 4 kts | 335° |
| 2026-04-24 15:11 | 43.47000 | -1.53214 | 257 ft | 5 kts | 21° |
| 2026-04-24 15:11 | 43.47035 | -1.53172 | 257 ft | 8 kts | 48° |
| 2026-04-24 15:11 | 43.47066 | -1.53139 | 257 ft | 1 kts | 18° |
| 2026-04-24 15:12 | 43.47085 | -1.53130 | 257 ft | 2 kts | 18° |
| 2026-04-24 15:12 | 43.47115 | -1.53119 | 256 ft | 0 kts | 15° |
| 2026-04-24 15:12 | 43.47117 | -1.53118 | 256 ft | 0 kts | 15° |